MMAS/AGU METAR and TAF weather

Enter ICAO airport designator
Station Type Date Time Source
MMAS METAR 2018/12/17 02:41 UTC NOAA

MMAS 170241Z 04006KT 9SM BKN200 11/M01 A3035 RMK 8/008 HZY


Station Type Date Time Source
MMAS Decoded METAR 2018/12/17 02:41 UTC NOAA

Aguascalientes, Ags., Mexico (MMAS) 21-53N 102-18W
Dec 16, 2018 - 09:41 PM EST / 2018.12.17 0241 UTC
Wind: from the NE (040 degrees) at 7 MPH (6 KT):0
Visibility: 9 mile(s):0
Sky conditions: mostly cloudy
Temperature: 51 F (11 C)
Dew Point: 30 F (-1 C)
Relative Humidity: 43%
Pressure (altimeter): 30.35 in. Hg (1027 hPa)
ob: MMAS 170241Z 04006KT 9SM BKN200 11/M01 A3035 RMK 8/008 HZY
cycle: 2

Station Type Date Time Source
MMAS TAF 2018/12/16 18:33 UTC NOAA

TAF TAF MMAS 161630Z 1618/1718 04010KT P6SM BKN200
FM170600 00000KT P6SM BKN200


Example: see airport list